Terminal Aerodrome Forecast
Issued by NWS

Home | Current Version | Previous Version | Text Only | Print | Product List | Glossary On
Versions: 1 2 3 4 5 6 7 8 9 10 11 12 13 14 15 16 17 18 19 20 21
000
FTUS43 KILX 222300
TAFDEC
TAF
KDEC 222330Z 2300/2324 20015G24KT P6SM OVC025
     FM230200 19013G17KT 6SM BR VCSH OVC025 WS020/22040KT
     FM230600 17013KT 3SM -RADZ BR OVC010 WS020/22040KT
     FM231500 16014G20KT 4SM BR VCSH OVC010=

USA.gov is the U.S. government's official web portal to all federal, state and local government web resources and services.